createdAt,value
2019-06-08T00:00:52.727Z,15.73
2019-06-08T00:03:23.166Z,15.76
2019-06-08T00:05:53.661Z,15.67
2019-06-08T00:08:24.117Z,15.46
2019-06-08T00:10:54.539Z,15.48
2019-06-08T00:13:25.019Z,15.67
2019-06-08T00:15:55.846Z,15.66
2019-06-08T00:18:26.295Z,15.67
2019-06-08T00:20:57.165Z,15.56
2019-06-08T00:23:27.603Z,15.76
2019-06-08T00:25:58.053Z,15.77
2019-06-08T00:28:28.539Z,15.45
2019-06-08T00:30:58.969Z,15.42
2019-06-08T00:33:29.408Z,15.40
2019-06-08T00:35:59.895Z,15.46
2019-06-08T00:38:30.329Z,15.29
2019-06-08T00:41:00.771Z,15.24
2019-06-08T00:43:31.253Z,15.27
2019-06-08T00:46:02.029Z,15.16
2019-06-08T00:48:32.461Z,15.10
2019-06-08T00:51:02.949Z,15.14
2019-06-08T00:53:33.381Z,15.20
2019-06-08T00:56:03.867Z,15.25
2019-06-08T00:58:34.337Z,15.24
2019-06-08T01:01:04.785Z,15.12
2019-06-08T01:03:35.547Z,15.16
2019-06-08T01:06:06.553Z,15.04
2019-06-08T01:08:36.992Z,14.95
2019-06-08T01:11:07.412Z,15.00
2019-06-08T01:13:37.880Z,14.93
2019-06-08T01:16:08.412Z,14.94
2019-06-08T01:18:39.009Z,14.77
2019-06-08T01:21:09.885Z,14.81
2019-06-08T01:23:40.882Z,14.83
2019-06-08T01:26:11.305Z,14.64
2019-06-08T01:28:41.771Z,14.52
2019-06-08T01:31:12.201Z,14.46
2019-06-08T01:33:42.634Z,14.48
2019-06-08T01:36:13.897Z,14.43
2019-06-08T01:38:44.327Z,14.47
2019-06-08T01:41:14.756Z,14.50
2019-06-08T01:43:45.228Z,14.32
2019-06-08T01:46:15.670Z,14.30
2019-06-08T01:48:46.451Z,14.31
2019-06-08T01:51:16.936Z,14.28
2019-06-08T01:53:47.363Z,14.23
2019-06-08T01:56:18.154Z,14.21
2019-06-08T01:58:48.993Z,14.26
2019-06-08T02:01:19.421Z,14.19
2019-06-08T02:03:49.847Z,14.31
2019-06-08T02:06:20.334Z,14.28
2019-06-08T02:08:50.768Z,14.23
2019-06-08T02:11:21.554Z,14.26
2019-06-08T02:13:52.032Z,14.29
2019-06-08T02:16:22.781Z,14.32
2019-06-08T02:18:53.211Z,14.37
2019-06-08T02:21:23.684Z,14.33
2019-06-08T02:23:54.148Z,14.24
2019-06-08T02:26:27.057Z,14.31
2019-06-08T02:28:56.748Z,14.27
2019-06-08T02:31:27.976Z,14.24
2019-06-08T02:33:58.796Z,14.21
2019-06-08T02:36:31.083Z,14.21
2019-06-08T02:39:01.412Z,14.11
2019-06-08T02:41:33.117Z,14.16
2019-06-08T02:44:04.283Z,14.12
2019-06-08T02:46:35.942Z,14.13
2019-06-08T02:49:07.659Z,14.19
2019-06-08T02:51:38.679Z,14.14
2019-06-08T02:54:09.299Z,14.15
2019-06-08T02:56:41.921Z,14.13
2019-06-08T02:59:15.692Z,14.07
2019-06-08T03:01:48.909Z,14.00
2019-06-08T03:04:21.687Z,14.00
2019-06-08T03:06:54.621Z,14.06
2019-06-08T03:09:27.928Z,14.05
2019-06-08T03:11:59.797Z,14.11
2019-06-08T03:14:33.354Z,14.17
2019-06-08T03:17:04.365Z,14.12
2019-06-08T03:19:35.701Z,13.97
2019-06-08T03:22:10.668Z,13.98
2019-06-08T03:24:38.841Z,13.95
2019-06-08T03:27:09.287Z,13.89
2019-06-08T03:29:41.587Z,13.94
2019-06-08T03:32:12.472Z,13.85
2019-06-08T03:34:51.178Z,13.92
2019-06-08T03:37:15.021Z,13.79
2019-06-08T03:39:45.514Z,13.77
2019-06-08T03:42:16.351Z,13.91
2019-06-08T03:44:46.837Z,13.89
2019-06-08T03:47:17.309Z,13.90
2019-06-08T03:49:56.594Z,13.92
2019-06-08T03:52:20.219Z,13.97
2019-06-08T03:54:50.698Z,13.93
2019-06-08T03:57:21.125Z,13.93
2019-06-08T03:59:51.988Z,13.98
2019-06-08T04:02:22.454Z,13.86
2019-06-08T04:04:53.256Z,13.93
2019-06-08T04:07:24.095Z,14.01
2019-06-08T04:09:54.971Z,14.01
2019-06-08T04:12:26.021Z,14.02
2019-06-08T04:14:56.443Z,14.13
2019-06-08T04:17:26.913Z,14.15
2019-06-08T04:20:10.472Z,14.17
2019-06-08T04:22:29.854Z,14.22
2019-06-08T04:25:00.685Z,14.27
2019-06-08T04:27:31.108Z,14.34
2019-06-08T04:30:01.542Z,14.30
2019-06-08T04:32:32.385Z,14.26
2019-06-08T04:35:03.172Z,14.28
2019-06-08T04:37:34.093Z,14.30
2019-06-08T04:40:05.098Z,14.25
2019-06-08T04:42:35.684Z,14.23
2019-06-08T04:45:07.178Z,14.25
2019-06-08T04:47:38.460Z,14.30
2019-06-08T04:50:21.835Z,14.29
2019-06-08T04:52:42.586Z,14.34
2019-06-08T04:55:13.497Z,14.37
2019-06-08T04:57:46.041Z,14.39
2019-06-08T05:00:18.509Z,14.45
2019-06-08T05:02:51.084Z,14.42
2019-06-08T05:05:21.370Z,14.52
2019-06-08T05:07:51.853Z,14.53
2019-06-08T05:10:22.268Z,14.58
2019-06-08T05:12:52.699Z,14.60
2019-06-08T05:15:23.173Z,14.61
2019-06-08T05:17:53.964Z,14.63
2019-06-08T05:20:37.712Z,14.65
2019-06-08T05:22:56.919Z,14.69
2019-06-08T05:25:27.339Z,14.77
2019-06-08T05:27:58.143Z,14.72
2019-06-08T05:30:28.660Z,14.68
2019-06-08T05:32:59.091Z,14.71
2019-06-08T05:35:29.803Z,14.71
2019-06-08T05:38:00.272Z,14.82
2019-06-08T05:40:30.692Z,14.92
2019-06-08T05:43:01.107Z,14.85
2019-06-08T05:45:32.026Z,14.92
2019-06-08T05:48:02.464Z,14.85
2019-06-08T05:50:32.985Z,14.71
2019-06-08T05:53:03.458Z,14.73
2019-06-08T05:55:34.167Z,14.70
2019-06-08T05:58:04.595Z,14.62
2019-06-08T06:00:35.075Z,14.70
2019-06-08T06:03:05.515Z,14.76
2019-06-08T06:05:36.065Z,14.92
2019-06-08T06:08:18.493Z,14.92
2019-06-08T06:10:40.654Z,14.99
2019-06-08T06:13:11.891Z,15.05
2019-06-08T06:15:42.995Z,15.20
2019-06-08T06:18:13.519Z,15.32
2019-06-08T06:20:45.260Z,15.48
2019-06-08T06:23:16.257Z,15.55
2019-06-08T06:25:47.539Z,15.52
2019-06-08T06:28:18.699Z,15.59
2019-06-08T06:30:50.230Z,15.57
2019-06-08T06:33:20.718Z,15.38
2019-06-08T06:35:52.117Z,15.58
2019-06-08T06:38:22.935Z,15.66
2019-06-08T06:40:53.388Z,15.82
2019-06-08T06:43:23.970Z,16.01
2019-06-08T06:45:54.404Z,16.01
2019-06-08T06:48:25.212Z,16.17
2019-06-08T06:50:55.688Z,16.16
2019-06-08T06:53:26.175Z,16.22
2019-06-08T06:55:56.599Z,16.38
2019-06-08T06:58:27.075Z,16.30
2019-06-08T07:00:57.775Z,16.41
2019-06-08T07:03:28.332Z,16.51
2019-06-08T07:05:58.833Z,16.56
2019-06-08T07:08:29.260Z,16.73
2019-06-08T07:10:59.698Z,16.86
2019-06-08T07:13:30.195Z,16.75
2019-06-08T07:16:17.379Z,16.74
2019-06-08T07:18:33.125Z,16.77
2019-06-08T07:21:03.615Z,16.96
2019-06-08T07:23:35.175Z,17.09
2019-06-08T07:26:05.611Z,17.16
2019-06-08T07:28:36.091Z,17.13
2019-06-08T07:31:06.815Z,17.24
2019-06-08T07:33:37.684Z,17.28
2019-06-08T07:36:08.173Z,17.32
2019-06-08T07:38:38.978Z,17.33
2019-06-08T07:41:10.384Z,17.17
2019-06-08T07:43:41.177Z,17.02
2019-06-08T07:46:11.944Z,17.06
2019-06-08T07:48:42.736Z,17.07
2019-06-08T07:51:13.229Z,17.11
2019-06-08T07:53:43.669Z,16.95
2019-06-08T07:56:14.537Z,16.80
2019-06-08T07:58:45.016Z,16.71
2019-06-08T08:01:15.462Z,16.67
2019-06-08T08:03:47.950Z,16.67
2019-06-08T08:06:18.516Z,16.69
2019-06-08T08:08:52.621Z,17.01
2019-06-08T08:11:23.689Z,17.03
2019-06-08T08:13:54.847Z,17.14
2019-06-08T08:16:26.376Z,17.39
2019-06-08T08:18:57.592Z,17.20
2019-06-08T08:21:29.487Z,17.12
2019-06-08T08:24:01.641Z,17.15
2019-06-08T08:26:34.361Z,17.37
2019-06-08T08:29:04.924Z,17.19
2019-06-08T08:31:37.295Z,17.01
2019-06-08T08:34:08.966Z,16.99
2019-06-08T08:36:40.138Z,17.02
2019-06-08T08:39:11.066Z,16.83
2019-06-08T08:41:44.912Z,16.90
2019-06-08T08:44:17.660Z,16.93
2019-06-08T08:46:50.078Z,17.16
2019-06-08T08:49:20.563Z,17.13
2019-06-08T08:51:52.205Z,17.19
2019-06-08T08:54:23.169Z,17.59
2019-06-08T08:56:56.853Z,17.89
2019-06-08T08:59:28.068Z,18.11
2019-06-08T09:02:01.321Z,18.32
2019-06-08T09:04:31.036Z,18.67
2019-06-08T09:07:05.589Z,18.67
2019-06-08T09:09:34.300Z,18.85
2019-06-08T09:12:04.880Z,18.95
2019-06-08T09:14:41.151Z,19.07
2019-06-08T09:17:08.956Z,19.03
2019-06-08T09:19:39.433Z,19.18
2019-06-08T09:22:09.878Z,19.28
2019-06-08T09:24:40.528Z,19.35
2019-06-08T09:27:11.236Z,19.11
2019-06-08T09:29:42.870Z,18.99
2019-06-08T09:32:13.355Z,18.98
2019-06-08T09:34:43.786Z,19.01
2019-06-08T09:37:14.226Z,19.07
2019-06-08T09:39:44.818Z,19.27
2019-06-08T09:42:20.959Z,19.10
2019-06-08T09:44:48.965Z,19.13
2019-06-08T09:47:19.818Z,18.91
2019-06-08T09:49:53.771Z,18.87
2019-06-08T09:52:28.157Z,18.87
2019-06-08T09:55:02.377Z,18.61
2019-06-08T09:57:31.258Z,18.61
2019-06-08T10:00:08.685Z,18.51
2019-06-08T10:02:33.908Z,18.54
2019-06-08T10:05:06.401Z,18.43
2019-06-08T10:07:38.849Z,18.53
2019-06-08T10:10:10.745Z,18.61
2019-06-08T10:12:41.353Z,18.69
2019-06-08T10:15:12.402Z,18.60
2019-06-08T10:17:42.876Z,18.59
2019-06-08T10:20:14.300Z,18.47
2019-06-08T10:22:45.078Z,18.38
2019-06-08T10:25:16.012Z,18.33
2019-06-08T10:27:46.750Z,18.31
2019-06-08T10:30:18.697Z,18.29
2019-06-08T10:32:50.756Z,18.51
2019-06-08T10:35:21.858Z,18.60
2019-06-08T10:37:55.142Z,18.71
2019-06-08T10:40:24.529Z,18.72
2019-06-08T10:42:58.363Z,18.94
2019-06-08T10:45:28.632Z,18.95
2019-06-08T10:48:00.803Z,19.29
2019-06-08T10:50:31.339Z,19.44
2019-06-08T10:53:04.070Z,19.28
2019-06-08T10:55:34.467Z,19.39
2019-06-08T10:58:06.571Z,19.28
2019-06-08T11:00:38.821Z,19.26
2019-06-08T11:03:10.663Z,19.08
2019-06-08T11:05:41.939Z,18.98
2019-06-08T11:08:14.414Z,18.95
2019-06-08T11:10:44.662Z,18.95
2019-06-08T11:13:18.667Z,18.89
2019-06-08T11:15:48.131Z,18.76
2019-06-08T11:18:18.789Z,18.89
2019-06-08T11:20:49.620Z,18.95
2019-06-08T11:23:20.117Z,19.10
2019-06-08T11:25:50.886Z,19.39
2019-06-08T11:28:21.837Z,20.05
2019-06-08T11:30:52.566Z,20.56
2019-06-08T11:33:23.042Z,20.59
2019-06-08T11:35:53.479Z,20.78
2019-06-08T11:38:23.909Z,20.94
2019-06-08T11:40:54.693Z,21.15
2019-06-08T11:43:25.430Z,20.99
2019-06-08T11:45:58.272Z,20.94
2019-06-08T11:48:29.278Z,20.77
2019-06-08T11:51:00.700Z,20.86
2019-06-08T11:53:31.130Z,20.88
2019-06-08T11:56:04.634Z,20.90
2019-06-08T11:58:38.579Z,20.94
2019-06-08T12:01:13.753Z,21.31
2019-06-08T12:03:42.891Z,21.67
2019-06-08T12:06:14.485Z,21.53
2019-06-08T12:08:47.220Z,21.19
2019-06-08T12:11:20.710Z,20.94
2019-06-08T12:13:49.495Z,20.87
2019-06-08T12:16:22.329Z,20.77
2019-06-08T12:18:52.099Z,20.83
2019-06-08T12:21:22.525Z,20.95
2019-06-08T12:23:53.568Z,21.29
2019-06-08T12:26:24.044Z,21.42
2019-06-08T12:28:55.168Z,21.72
2019-06-08T12:31:27.969Z,21.69
2019-06-08T12:33:58.785Z,21.50
2019-06-08T12:36:30.729Z,21.06
2019-06-08T12:39:01.597Z,20.67
2019-06-08T12:41:32.073Z,20.55
2019-06-08T12:44:02.557Z,20.90
2019-06-08T12:46:32.987Z,20.94
2019-06-08T12:49:03.422Z,21.13
2019-06-08T12:51:33.910Z,20.82
2019-06-08T12:54:04.444Z,20.67
2019-06-08T12:56:34.870Z,20.47
2019-06-08T12:59:07.862Z,20.31
2019-06-08T13:01:38.328Z,20.21
2019-06-08T13:04:09.528Z,20.80
2019-06-08T13:06:40.763Z,21.03
2019-06-08T13:09:13.133Z,20.91
2019-06-08T13:11:44.343Z,20.67
2019-06-08T13:14:14.854Z,20.32
2019-06-08T13:16:45.358Z,20.15
2019-06-08T13:19:16.233Z,20.07
2019-06-08T13:21:48.748Z,20.28
2019-06-08T13:24:19.290Z,20.80
2019-06-08T13:26:50.814Z,21.16
2019-06-08T13:29:22.212Z,21.58
2019-06-08T13:31:52.767Z,22.01
2019-06-08T13:34:24.568Z,22.18
2019-06-08T13:36:55.505Z,22.50
2019-06-08T13:39:27.997Z,22.57
2019-06-08T13:41:58.557Z,22.78
2019-06-08T13:44:29.350Z,22.16
2019-06-08T13:47:00.072Z,22.01
2019-06-08T13:49:30.996Z,21.88
2019-06-08T13:52:01.864Z,21.82
2019-06-08T13:54:32.296Z,21.77
2019-06-08T13:57:02.728Z,21.68
2019-06-08T13:59:33.564Z,21.27
2019-06-08T14:02:04.007Z,21.57
2019-06-08T14:04:39.381Z,21.54
2019-06-08T14:07:07.893Z,21.29
2019-06-08T14:09:38.429Z,21.09
2019-06-08T14:12:08.884Z,21.07
2019-06-08T14:14:39.923Z,21.26
2019-06-08T14:17:10.529Z,21.40
2019-06-08T14:19:41.300Z,21.34
2019-06-08T14:22:11.790Z,21.27
2019-06-08T14:24:42.644Z,21.09
2019-06-08T14:27:15.254Z,20.84
2019-06-08T14:29:45.734Z,21.01
2019-06-08T14:32:18.810Z,21.46
2019-06-08T14:34:50.238Z,21.67
2019-06-08T14:37:22.830Z,21.92
2019-06-08T14:39:57.457Z,21.93
2019-06-08T14:42:30.093Z,21.81
2019-06-08T14:45:00.271Z,21.89
2019-06-08T14:47:30.698Z,21.76
2019-06-08T14:50:02.068Z,21.75
2019-06-08T14:52:32.684Z,21.68
2019-06-08T14:55:03.488Z,21.64
2019-06-08T14:57:34.331Z,21.50
2019-06-08T15:00:11.366Z,21.54
2019-06-08T15:02:38.221Z,21.48
2019-06-08T15:05:08.722Z,21.20
2019-06-08T15:07:39.147Z,21.20
2019-06-08T15:10:10.098Z,21.09
2019-06-08T15:12:41.505Z,20.95
2019-06-08T15:15:12.350Z,20.96
2019-06-08T15:17:42.784Z,20.86
2019-06-08T15:20:13.961Z,20.78
2019-06-08T15:22:44.393Z,20.90
2019-06-08T15:25:15.230Z,20.75
2019-06-08T15:27:47.815Z,20.59
2019-06-08T15:30:20.861Z,20.60
2019-06-08T15:32:51.790Z,20.53
2019-06-08T15:35:23.052Z,20.50
2019-06-08T15:37:53.892Z,20.56
2019-06-08T15:40:25.853Z,20.54
2019-06-08T15:42:58.348Z,20.40
2019-06-08T15:45:30.903Z,20.43
2019-06-08T15:48:01.132Z,20.43
2019-06-08T15:50:32.699Z,20.31
2019-06-08T15:53:03.237Z,20.40
2019-06-08T15:55:34.563Z,20.42
2019-06-08T15:58:08.685Z,20.31
2019-06-08T16:00:38.814Z,20.36
2019-06-08T16:03:09.236Z,20.45
2019-06-08T16:05:40.901Z,20.54
2019-06-08T16:08:11.775Z,20.55
2019-06-08T16:10:42.575Z,20.54
2019-06-08T16:13:13.057Z,20.41
2019-06-08T16:15:43.847Z,20.39
2019-06-08T16:18:14.581Z,20.21
2019-06-08T16:20:45.051Z,20.11
2019-06-08T16:23:15.953Z,20.06
2019-06-08T16:25:46.456Z,20.06
2019-06-08T16:28:17.224Z,20.07
2019-06-08T16:30:47.704Z,20.07
2019-06-08T16:33:18.488Z,20.06
2019-06-08T16:35:48.989Z,20.10
2019-06-08T16:38:20.168Z,20.15
2019-06-08T16:40:50.806Z,20.20
2019-06-08T16:43:21.954Z,20.02
2019-06-08T16:45:52.439Z,20.02
2019-06-08T16:48:23.832Z,19.95
2019-06-08T16:50:54.653Z,19.96
2019-06-08T16:53:25.515Z,19.84
2019-06-08T16:55:56.228Z,19.94
2019-06-08T16:58:27.838Z,19.89
2019-06-08T17:00:58.338Z,19.91
2019-06-08T17:03:29.017Z,19.82
2019-06-08T17:05:59.440Z,19.78
2019-06-08T17:08:33.770Z,19.78
2019-06-08T17:11:02.053Z,19.74
2019-06-08T17:13:33.983Z,19.68
2019-06-08T17:16:04.559Z,19.76
2019-06-08T17:18:36.237Z,19.69
2019-06-08T17:21:07.586Z,19.54
2019-06-08T17:23:38.548Z,19.53
2019-06-08T17:26:09.285Z,19.59
2019-06-08T17:28:41.061Z,19.59
2019-06-08T17:31:11.714Z,19.43
2019-06-08T17:33:42.147Z,19.42
2019-06-08T17:36:12.986Z,19.53
2019-06-08T17:38:43.642Z,19.43
2019-06-08T17:41:14.086Z,19.42
2019-06-08T17:43:44.852Z,19.34
2019-06-08T17:46:17.736Z,19.28
2019-06-08T17:48:48.476Z,19.29
2019-06-08T17:51:18.910Z,19.28
2019-06-08T17:53:49.377Z,19.36
2019-06-08T17:56:19.817Z,19.25
2019-06-08T17:58:50.607Z,19.28
2019-06-08T18:01:21.445Z,19.23
2019-06-08T18:03:52.273Z,19.31
2019-06-08T18:06:23.938Z,19.37
2019-06-08T18:08:54.372Z,19.39
2019-06-08T18:11:24.806Z,19.38
2019-06-08T18:13:58.800Z,19.46
2019-06-08T18:16:29.345Z,19.28
2019-06-08T18:19:00.456Z,19.21
2019-06-08T18:21:31.308Z,19.12
2019-06-08T18:24:01.801Z,19.07
2019-06-08T18:26:32.905Z,18.99
2019-06-08T18:29:03.399Z,18.84
2019-06-08T18:31:34.553Z,18.88
2019-06-08T18:34:04.975Z,18.87
2019-06-08T18:36:39.153Z,18.80
2019-06-08T18:39:08.467Z,18.85
2019-06-08T18:41:40.749Z,18.88
2019-06-08T18:44:11.439Z,18.71
2019-06-08T18:46:41.872Z,18.73
2019-06-08T18:49:12.310Z,18.63
2019-06-08T18:51:43.922Z,18.69
2019-06-08T18:54:18.654Z,18.46
2019-06-08T18:56:48.811Z,18.47
2019-06-08T18:59:19.842Z,18.15
2019-06-08T19:01:50.684Z,18.15
2019-06-08T19:04:21.144Z,18.06
2019-06-08T19:06:52.659Z,17.98
2019-06-08T19:09:23.096Z,17.91
2019-06-08T19:11:53.547Z,17.74
2019-06-08T19:14:24.042Z,17.61
2019-06-08T19:16:54.941Z,17.56
2019-06-08T19:19:31.044Z,17.46
2019-06-08T19:21:58.133Z,17.55
2019-06-08T19:24:28.587Z,17.49
2019-06-08T19:26:59.016Z,17.58
2019-06-08T19:29:29.890Z,17.53
2019-06-08T19:32:00.862Z,17.54
2019-06-08T19:34:33.712Z,17.49
2019-06-08T19:37:07.820Z,17.41
2019-06-08T19:39:39.694Z,17.34
2019-06-08T19:42:09.916Z,17.30
2019-06-08T19:44:46.666Z,17.35
2019-06-08T19:47:12.483Z,17.25
2019-06-08T19:49:43.028Z,17.25
2019-06-08T19:52:14.609Z,17.13
2019-06-08T19:54:47.081Z,16.98
2019-06-08T19:57:17.624Z,16.80
2019-06-08T19:59:48.255Z,16.80
2019-06-08T20:02:19.038Z,16.78
2019-06-08T20:04:50.464Z,16.79
2019-06-08T20:07:20.976Z,16.79
2019-06-08T20:09:51.610Z,16.80
2019-06-08T20:12:23.082Z,16.80
2019-06-08T20:14:53.854Z,16.79
2019-06-08T20:17:28.431Z,16.82
2019-06-08T20:19:58.926Z,16.78
2019-06-08T20:22:29.895Z,16.80
2019-06-08T20:25:00.922Z,16.81
2019-06-08T20:27:31.414Z,16.78
2019-06-08T20:30:08.396Z,16.73
2019-06-08T20:32:35.624Z,16.71
2019-06-08T20:35:08.205Z,16.67
2019-06-08T20:37:38.777Z,16.51
2019-06-08T20:40:13.678Z,16.37
2019-06-08T20:42:42.242Z,16.48
2019-06-08T20:45:13.083Z,16.42
2019-06-08T20:47:49.440Z,16.43
2019-06-08T20:50:17.754Z,16.45
2019-06-08T20:52:49.685Z,16.37
2019-06-08T20:55:21.350Z,16.32
2019-06-08T20:57:52.432Z,16.34
2019-06-08T21:00:23.181Z,16.30
2019-06-08T21:02:54.927Z,16.28
2019-06-08T21:05:27.845Z,16.21
2019-06-08T21:07:58.917Z,16.22
2019-06-08T21:10:29.661Z,16.23
2019-06-08T21:13:00.174Z,16.14
2019-06-08T21:15:31.360Z,16.04
2019-06-08T21:18:02.096Z,15.99
2019-06-08T21:20:32.907Z,16.02
2019-06-08T21:23:03.368Z,15.97
2019-06-08T21:25:33.796Z,15.97
2019-06-08T21:28:04.636Z,16.00
2019-06-08T21:30:37.542Z,15.96
2019-06-08T21:33:08.444Z,15.91
2019-06-08T21:35:39.215Z,15.77
2019-06-08T21:38:22.619Z,15.78
2019-06-08T21:40:42.514Z,15.74
2019-06-08T21:43:13.013Z,15.71
2019-06-08T21:45:43.464Z,15.71
2019-06-08T21:48:14.320Z,15.62
2019-06-08T21:50:45.132Z,15.66
2019-06-08T21:53:17.982Z,15.63
2019-06-08T21:55:47.973Z,15.67
2019-06-08T21:58:20.128Z,15.60
2019-06-08T22:00:52.684Z,15.55
2019-06-08T22:03:23.171Z,15.50
2019-06-08T22:05:53.903Z,15.41
2019-06-08T22:08:24.714Z,15.35
2019-06-08T22:10:56.924Z,15.36
2019-06-08T22:13:28.248Z,15.25
2019-06-08T22:16:02.077Z,15.18
2019-06-08T22:18:31.081Z,15.08
2019-06-08T22:21:01.610Z,15.12
2019-06-08T22:23:32.089Z,15.14
2019-06-08T22:26:03.695Z,15.09
2019-06-08T22:28:34.911Z,15.07
2019-06-08T22:31:07.742Z,14.95
2019-06-08T22:33:37.949Z,14.85
2019-06-08T22:36:09.328Z,14.86
2019-06-08T22:38:39.715Z,14.81
2019-06-08T22:41:10.136Z,14.78
2019-06-08T22:43:40.617Z,14.75
2019-06-08T22:46:11.121Z,14.65
2019-06-08T22:48:41.551Z,14.66
2019-06-08T22:51:12.037Z,14.57
2019-06-08T22:53:42.458Z,14.61
2019-06-08T22:56:12.883Z,14.55
2019-06-08T22:58:43.657Z,14.54
2019-06-08T23:01:15.306Z,14.46
2019-06-08T23:03:47.617Z,14.39
2019-06-08T23:06:18.087Z,14.38
2019-06-08T23:08:48.512Z,14.43
2019-06-08T23:11:18.949Z,14.38
2019-06-08T23:13:49.842Z,14.32
2019-06-08T23:16:20.267Z,14.30
2019-06-08T23:18:50.693Z,14.22
2019-06-08T23:21:21.184Z,14.21
2019-06-08T23:23:51.609Z,14.23
2019-06-08T23:26:22.065Z,14.15
2019-06-08T23:28:52.537Z,14.17
2019-06-08T23:31:25.745Z,14.15
2019-06-08T23:33:57.201Z,14.12
2019-06-08T23:36:46.947Z,14.15
2019-06-08T23:39:01.087Z,14.02
2019-06-08T23:41:31.607Z,13.89
2019-06-08T23:44:02.087Z,13.83
2019-06-08T23:46:33.272Z,13.76
2019-06-08T23:49:04.376Z,13.72
2019-06-08T23:51:37.971Z,13.71
2019-06-08T23:54:11.348Z,13.76
2019-06-08T23:56:40.124Z,13.76
2019-06-08T23:59:10.606Z,13.81
